createdAt,value
2017-12-13T00:01:17.583Z,6.45
2017-12-13T00:03:46.208Z,5.93
2017-12-13T00:06:14.729Z,6.75
2017-12-13T00:08:43.411Z,5.85
2017-12-13T00:11:11.832Z,6.75
2017-12-13T00:13:41.032Z,6.57
2017-12-13T00:16:10.229Z,7.25
2017-12-13T00:18:39.532Z,7.45
2017-12-13T00:21:08.726Z,7.60
2017-12-13T00:23:38.099Z,8.00
2017-12-13T00:26:06.527Z,8.00
2017-12-13T00:28:35.019Z,8.10
2017-12-13T00:31:03.472Z,8.13
2017-12-13T00:33:32.650Z,8.48
2017-12-13T00:36:01.339Z,8.27
2017-12-13T00:38:29.830Z,8.80
2017-12-13T00:40:58.276Z,8.45
2017-12-13T00:43:26.919Z,9.77
2017-12-13T00:45:55.620Z,8.80
2017-12-13T00:48:24.044Z,8.00
2017-12-13T00:50:53.269Z,9.60
2017-12-13T00:53:22.474Z,9.52
2017-12-13T00:55:51.668Z,9.45
2017-12-13T00:58:20.878Z,9.90
2017-12-13T01:00:49.300Z,9.95
2017-12-13T01:03:18.028Z,8.45
2017-12-13T01:05:47.689Z,10.05
2017-12-13T01:08:16.226Z,8.20
2017-12-13T01:10:49.481Z,10.10
2017-12-13T01:13:17.937Z,10.35
2017-12-13T01:15:46.383Z,11.12
2017-12-13T01:18:15.599Z,10.10
2017-12-13T01:20:44.158Z,9.60
2017-12-13T01:23:13.360Z,12.00
2017-12-13T01:25:42.575Z,10.23
2017-12-13T01:28:11.025Z,10.15
2017-12-13T01:30:39.453Z,9.52
2017-12-13T01:33:07.870Z,9.55
2017-12-13T01:35:36.233Z,10.00
2017-12-13T01:38:04.639Z,9.35
2017-12-13T01:40:33.858Z,11.23
2017-12-13T01:43:03.038Z,9.50
2017-12-13T01:45:31.675Z,8.40
2017-12-13T01:48:00.133Z,8.23
2017-12-13T01:50:29.339Z,8.93
2017-12-13T01:52:57.836Z,8.15
2017-12-13T01:55:26.748Z,8.25
2017-12-13T01:57:55.182Z,9.13
2017-12-13T02:00:24.389Z,7.65
2017-12-13T02:02:53.003Z,7.12
2017-12-13T02:05:21.434Z,7.62
2017-12-13T02:07:50.634Z,8.20
2017-12-13T02:10:19.835Z,8.40
2017-12-13T02:12:49.047Z,7.53
2017-12-13T02:15:17.501Z,7.40
2017-12-13T02:17:45.932Z,7.53
2017-12-13T02:20:14.375Z,7.93
2017-12-13T02:22:43.666Z,8.60
2017-12-13T02:25:12.445Z,8.45
2017-12-13T02:27:40.874Z,8.07
2017-12-13T02:30:09.345Z,7.43
2017-12-13T02:32:37.784Z,7.72
2017-12-13T02:35:06.240Z,7.80
2017-12-13T02:37:34.672Z,7.55
2017-12-13T02:40:15.211Z,7.68
2017-12-13T02:42:45.155Z,7.70
2017-12-13T02:45:14.399Z,7.00
2017-12-13T02:47:42.968Z,7.22
2017-12-13T02:50:11.390Z,6.70
2017-12-13T02:52:39.870Z,6.60
2017-12-13T02:55:08.328Z,7.43
2017-12-13T02:57:36.831Z,7.53
2017-12-13T03:00:05.241Z,7.25
2017-12-13T03:02:35.388Z,7.05
2017-12-13T03:05:03.805Z,7.28
2017-12-13T03:07:32.230Z,7.40
2017-12-13T03:10:00.654Z,7.35
2017-12-13T03:12:29.130Z,6.43
2017-12-13T03:14:57.555Z,6.78
2017-12-13T03:17:26.791Z,6.82
2017-12-13T03:19:55.377Z,7.15
2017-12-13T03:22:23.831Z,7.47
2017-12-13T03:24:53.266Z,7.03
2017-12-13T03:27:21.726Z,6.68
2017-12-13T03:29:50.209Z,5.97
2017-12-13T03:32:18.646Z,6.45
2017-12-13T03:34:47.067Z,6.35
2017-12-13T03:37:15.530Z,7.07
2017-12-13T03:39:44.706Z,6.87
2017-12-13T03:42:13.129Z,6.25
2017-12-13T03:44:41.554Z,6.80
2017-12-13T03:47:10.131Z,5.80
2017-12-13T03:49:38.751Z,6.25
2017-12-13T03:52:07.950Z,5.97
2017-12-13T03:54:36.373Z,6.20
2017-12-13T03:57:04.806Z,6.28
2017-12-13T03:59:33.218Z,5.50
2017-12-13T04:02:01.668Z,6.15
2017-12-13T04:04:30.079Z,6.70
2017-12-13T04:06:58.508Z,5.68
2017-12-13T04:09:26.957Z,6.75
2017-12-13T04:11:55.393Z,6.30
2017-12-13T04:14:24.618Z,6.10
2017-12-13T04:16:53.176Z,6.25
2017-12-13T04:19:22.384Z,6.05
2017-12-13T04:21:51.577Z,6.25
2017-12-13T04:24:20.770Z,5.60
2017-12-13T04:26:49.955Z,5.97
2017-12-13T04:29:18.387Z,6.25
2017-12-13T04:31:47.090Z,6.40
2017-12-13T04:34:15.620Z,5.78
2017-12-13T04:36:45.089Z,5.82
2017-12-13T04:39:13.515Z,5.97
2017-12-13T04:41:42.702Z,5.43
2017-12-13T04:44:11.936Z,5.95
2017-12-13T04:46:40.376Z,6.07
2017-12-13T04:49:08.790Z,6.18
2017-12-13T04:51:37.701Z,5.37
2017-12-13T04:54:06.128Z,5.05
2017-12-13T04:56:34.613Z,6.60
2017-12-13T04:59:03.799Z,5.55
2017-12-13T05:01:32.226Z,5.65
2017-12-13T05:04:00.687Z,5.70
2017-12-13T05:06:29.127Z,6.20
2017-12-13T05:08:57.718Z,6.05
2017-12-13T05:11:26.300Z,5.57
2017-12-13T05:13:54.757Z,5.28
2017-12-13T05:16:23.495Z,5.37
2017-12-13T05:18:51.977Z,5.70
2017-12-13T05:21:21.376Z,5.53
2017-12-13T05:23:50.566Z,5.93
2017-12-13T05:26:19.102Z,6.40
2017-12-13T05:28:47.543Z,6.90
2017-12-13T05:31:16.699Z,7.10
2017-12-13T05:33:45.111Z,6.20
2017-12-13T05:36:14.130Z,8.45
2017-12-13T05:38:42.792Z,5.97
2017-12-13T05:41:11.947Z,6.22
2017-12-13T05:43:42.874Z,6.62
2017-12-13T05:46:13.720Z,6.65
2017-12-13T05:48:42.175Z,6.37
2017-12-13T05:51:10.652Z,6.37
2017-12-13T05:53:39.456Z,6.30
2017-12-13T05:56:07.850Z,7.40
2017-12-13T05:58:36.379Z,6.43
2017-12-13T06:01:05.574Z,6.82
2017-12-13T06:03:34.736Z,6.37
2017-12-13T06:06:03.178Z,6.60
2017-12-13T06:08:31.607Z,6.55
2017-12-13T06:11:00.011Z,6.03
2017-12-13T06:13:29.298Z,6.35
2017-12-13T06:15:57.722Z,6.12
2017-12-13T06:18:26.203Z,7.20
2017-12-13T06:20:54.605Z,6.57
2017-12-13T06:23:23.063Z,5.72
2017-12-13T06:25:51.471Z,5.78
2017-12-13T06:28:19.866Z,6.62
2017-12-13T06:30:48.319Z,5.18
2017-12-13T06:33:16.795Z,4.80
2017-12-13T06:35:45.703Z,5.70
2017-12-13T06:38:14.110Z,5.00
2017-12-13T06:40:42.523Z,4.70
2017-12-13T06:43:11.016Z,4.60
2017-12-13T06:45:39.422Z,4.20
2017-12-13T06:48:07.821Z,3.97
2017-12-13T06:50:36.331Z,3.97
2017-12-13T06:53:05.759Z,3.75
2017-12-13T06:55:34.159Z,3.60
2017-12-13T06:58:02.550Z,3.70
2017-12-13T07:00:30.958Z,3.85
2017-12-13T07:02:59.358Z,3.00
2017-12-13T07:05:28.662Z,3.12
2017-12-13T07:07:57.851Z,3.30
2017-12-13T07:10:27.024Z,3.40
2017-12-13T07:12:55.436Z,2.92
2017-12-13T07:15:25.139Z,2.95
2017-12-13T07:17:54.263Z,3.33
2017-12-13T07:20:23.365Z,2.80
2017-12-13T07:22:51.815Z,3.30
2017-12-13T07:25:21.782Z,2.70
2017-12-13T07:27:50.186Z,3.08
2017-12-13T07:30:18.615Z,2.85
2017-12-13T07:32:47.051Z,3.62
2017-12-13T07:35:15.459Z,3.10
2017-12-13T07:37:44.632Z,3.10
2017-12-13T07:40:13.047Z,2.58
2017-12-13T07:42:41.442Z,5.30
2017-12-13T07:45:10.090Z,3.37
2017-12-13T07:47:39.291Z,3.42
2017-12-13T07:50:07.464Z,2.97
2017-12-13T07:52:35.651Z,3.43
2017-12-13T07:55:03.862Z,2.73
2017-12-13T07:57:32.029Z,2.90
2017-12-13T08:00:00.965Z,3.10
2017-12-13T08:02:29.167Z,3.37
2017-12-13T08:04:57.507Z,2.83
2017-12-13T08:07:25.812Z,2.43
2017-12-13T08:09:53.959Z,3.20
2017-12-13T08:12:22.363Z,3.17
2017-12-13T08:14:51.536Z,3.00
2017-12-13T08:17:20.183Z,3.15
2017-12-13T08:19:48.585Z,2.92
2017-12-13T08:22:17.571Z,2.95
2017-12-13T08:24:46.067Z,3.42
2017-12-13T08:27:14.542Z,3.00
2017-12-13T08:29:43.031Z,2.75
2017-12-13T08:32:11.444Z,2.65
2017-12-13T08:34:40.784Z,2.75
2017-12-13T08:37:09.183Z,3.42
2017-12-13T08:39:37.600Z,3.10
2017-12-13T08:42:06.211Z,3.30
2017-12-13T08:44:34.615Z,3.05
2017-12-13T08:47:03.011Z,2.78
2017-12-13T08:49:31.437Z,3.03
2017-12-13T08:52:00.634Z,3.05
2017-12-13T08:54:29.026Z,3.15
2017-12-13T08:56:57.446Z,3.20
2017-12-13T08:59:25.851Z,3.00
2017-12-13T09:01:54.254Z,2.85
2017-12-13T09:04:23.474Z,3.60
2017-12-13T09:06:51.990Z,3.60
2017-12-13T09:09:20.431Z,2.95
2017-12-13T09:11:48.950Z,2.42
2017-12-13T09:14:17.358Z,2.87
2017-12-13T09:16:45.891Z,2.95
2017-12-13T09:19:14.290Z,3.15
2017-12-13T09:21:42.727Z,3.58
2017-12-13T09:24:11.931Z,3.28
2017-12-13T09:26:40.432Z,3.10
2017-12-13T09:29:09.008Z,2.80
2017-12-13T09:31:37.502Z,2.87
2017-12-13T09:34:05.911Z,3.03
2017-12-13T09:36:34.661Z,4.00
2017-12-13T09:39:03.059Z,3.25
2017-12-13T09:41:31.456Z,2.83
2017-12-13T09:43:59.974Z,3.80
2017-12-13T09:46:29.303Z,2.65
2017-12-13T09:48:57.802Z,2.58
2017-12-13T09:51:26.193Z,2.72
2017-12-13T09:53:54.640Z,3.37
2017-12-13T09:56:23.457Z,2.58
2017-12-13T09:58:51.886Z,3.20
2017-12-13T10:01:21.062Z,2.10
2017-12-13T10:03:49.472Z,3.40
2017-12-13T10:06:18.395Z,2.37
2017-12-13T10:08:47.081Z,2.40
2017-12-13T10:11:15.575Z,2.28
2017-12-13T10:13:44.539Z,2.08
2017-12-13T10:16:12.935Z,1.80
2017-12-13T10:18:41.484Z,1.90
2017-12-13T10:21:10.685Z,2.03
2017-12-13T10:23:39.119Z,2.28
2017-12-13T10:26:07.531Z,1.85
2017-12-13T10:28:36.707Z,2.25
2017-12-13T10:31:05.111Z,1.90
2017-12-13T10:33:34.278Z,2.12
2017-12-13T10:36:02.718Z,2.20
2017-12-13T10:38:31.330Z,2.08
2017-12-13T10:40:59.732Z,1.70
2017-12-13T10:43:28.147Z,2.05
2017-12-13T10:45:56.564Z,1.42
2017-12-13T10:48:25.387Z,1.83
2017-12-13T10:50:53.795Z,1.65
2017-12-13T10:53:23.031Z,1.50
2017-12-13T10:55:51.424Z,1.00
2017-12-13T10:58:19.819Z,1.20
2017-12-13T11:00:48.264Z,1.45
2017-12-13T11:03:16.839Z,1.12
2017-12-13T11:05:45.247Z,1.33
2017-12-13T11:08:13.652Z,1.65
2017-12-13T11:10:42.066Z,1.50
2017-12-13T11:13:10.605Z,1.08
2017-12-13T11:15:39.139Z,3.60
2017-12-13T11:18:07.591Z,1.60
2017-12-13T11:20:36.752Z,2.90
2017-12-13T11:23:05.248Z,1.02
2017-12-13T11:25:33.755Z,1.27
2017-12-13T11:28:02.171Z,0.95
2017-12-13T11:30:30.788Z,1.25
2017-12-13T11:32:59.527Z,1.55
2017-12-13T11:35:28.726Z,0.85
2017-12-13T11:37:57.131Z,1.77
2017-12-13T11:40:25.623Z,1.10
2017-12-13T11:42:54.183Z,1.37
2017-12-13T11:45:22.591Z,0.75
2017-12-13T11:47:50.983Z,0.85
2017-12-13T11:50:19.624Z,0.85
2017-12-13T11:52:48.024Z,1.50
2017-12-13T11:55:16.418Z,1.08
2017-12-13T11:57:44.867Z,0.77
2017-12-13T12:00:13.251Z,0.80
2017-12-13T12:02:41.639Z,1.55
2017-12-13T12:05:10.076Z,0.80
2017-12-13T12:07:39.244Z,0.68
2017-12-13T12:10:07.645Z,0.90
2017-12-13T12:12:36.091Z,0.65
2017-12-13T12:15:04.490Z,0.70
2017-12-13T12:17:32.919Z,0.77
2017-12-13T12:20:01.335Z,1.20
2017-12-13T12:22:29.735Z,1.00
2017-12-13T12:24:58.159Z,0.77
2017-12-13T12:27:26.568Z,0.52
2017-12-13T12:29:55.162Z,0.57
2017-12-13T12:32:23.631Z,1.45
2017-12-13T12:34:52.024Z,1.23
2017-12-13T12:37:20.442Z,0.85
2017-12-13T12:39:49.599Z,0.88
2017-12-13T12:42:18.040Z,1.17
2017-12-13T12:44:46.643Z,1.60
2017-12-13T12:47:15.046Z,1.40
2017-12-13T12:49:43.419Z,0.80
2017-12-13T12:52:11.851Z,0.65
2017-12-13T12:54:41.028Z,0.77
2017-12-13T12:57:09.563Z,0.50
2017-12-13T12:59:38.047Z,0.55
2017-12-13T13:02:06.459Z,1.20
2017-12-13T13:04:34.898Z,0.45
2017-12-13T13:07:03.476Z,0.70
2017-12-13T13:09:31.931Z,0.47
2017-12-13T13:12:01.111Z,0.77
2017-12-13T13:14:29.523Z,0.50
2017-12-13T13:16:57.929Z,0.90
2017-12-13T13:19:26.331Z,0.40
2017-12-13T13:21:54.747Z,0.50
2017-12-13T13:24:24.559Z,0.52
2017-12-13T13:26:52.991Z,0.70
2017-12-13T13:29:21.734Z,1.40
2017-12-13T13:31:51.209Z,0.80
2017-12-13T13:34:20.391Z,0.60
2017-12-13T13:36:48.955Z,0.93
2017-12-13T13:39:18.347Z,2.30
2017-12-13T13:41:47.123Z,1.00
2017-12-13T13:44:15.721Z,0.90
2017-12-13T13:46:44.123Z,1.10
2017-12-13T13:49:12.610Z,0.90
2017-12-13T13:51:41.003Z,0.88
2017-12-13T13:54:09.428Z,1.05
2017-12-13T13:56:37.835Z,0.80
2017-12-13T13:59:06.787Z,0.80
2017-12-13T14:01:35.950Z,0.98
2017-12-13T14:04:04.538Z,0.52
2017-12-13T14:06:33.089Z,0.80
2017-12-13T14:09:01.839Z,1.08
2017-12-13T14:11:30.272Z,1.17
2017-12-13T14:13:59.679Z,0.98
2017-12-13T14:16:28.299Z,0.82
2017-12-13T14:18:57.802Z,0.90
2017-12-13T14:21:26.225Z,0.70
2017-12-13T14:23:54.619Z,1.37
2017-12-13T14:26:23.036Z,0.65
2017-12-13T14:28:51.419Z,0.57
2017-12-13T14:31:19.963Z,0.90
2017-12-13T14:33:49.302Z,0.77
2017-12-13T14:36:17.763Z,0.20
2017-12-13T14:38:46.232Z,0.52
2017-12-13T14:41:14.699Z,0.62
2017-12-13T14:43:43.130Z,0.70
2017-12-13T14:46:12.396Z,0.57
2017-12-13T14:48:40.828Z,0.40
2017-12-13T14:51:10.250Z,0.77
2017-12-13T14:53:38.876Z,0.68
2017-12-13T14:56:07.300Z,0.60
2017-12-13T14:58:35.730Z,0.65
2017-12-13T15:01:04.190Z,0.77
2017-12-13T15:03:32.731Z,0.90
2017-12-13T15:06:01.955Z,0.50
2017-12-13T15:08:30.355Z,0.82
2017-12-13T15:10:58.898Z,0.70
2017-12-13T15:13:27.464Z,0.55
2017-12-13T15:15:56.627Z,1.50
2017-12-13T15:18:25.044Z,1.27
2017-12-13T15:20:54.463Z,1.20
2017-12-13T15:23:22.879Z,1.62
2017-12-13T15:25:51.612Z,0.82
2017-12-13T15:28:20.011Z,0.60
2017-12-13T15:30:49.310Z,0.75
2017-12-13T15:33:17.735Z,0.30
2017-12-13T15:35:46.132Z,0.55
2017-12-13T15:38:14.544Z,1.10
2017-12-13T15:40:43.700Z,1.20
2017-12-13T15:43:12.123Z,0.60
2017-12-13T15:45:41.287Z,1.00
2017-12-13T15:48:09.908Z,0.70
2017-12-13T15:50:39.135Z,0.62
2017-12-13T15:53:07.775Z,0.60
2017-12-13T15:55:36.935Z,0.50
2017-12-13T15:58:05.367Z,0.45
2017-12-13T16:00:34.550Z,0.30
2017-12-13T16:03:02.964Z,0.60
2017-12-13T16:05:31.394Z,0.55
2017-12-13T16:08:00.037Z,0.70
2017-12-13T16:10:29.795Z,0.60
2017-12-13T16:12:58.379Z,0.60
2017-12-13T16:15:26.771Z,0.75
2017-12-13T16:17:55.159Z,0.88
2017-12-13T16:20:24.351Z,0.82
2017-12-13T16:22:52.897Z,0.90
2017-12-13T16:25:21.391Z,0.75
2017-12-13T16:27:49.792Z,0.50
2017-12-13T16:30:18.179Z,0.75
2017-12-13T16:32:46.828Z,0.65
2017-12-13T16:35:15.247Z,0.52
2017-12-13T16:37:44.423Z,0.90
2017-12-13T16:40:12.646Z,0.50
2017-12-13T16:42:41.207Z,0.50
2017-12-13T16:45:10.366Z,0.68
2017-12-13T16:47:39.204Z,0.60
2017-12-13T16:50:08.355Z,0.60
2017-12-13T16:52:36.771Z,1.02
2017-12-13T16:55:06.090Z,0.75
2017-12-13T16:57:34.515Z,0.82
2017-12-13T17:00:02.919Z,0.75
2017-12-13T17:02:31.339Z,0.65
2017-12-13T17:04:59.835Z,0.75
2017-12-13T17:07:28.236Z,1.00
2017-12-13T17:09:56.651Z,0.82
2017-12-13T17:12:25.811Z,0.70
2017-12-13T17:14:54.219Z,0.88
2017-12-13T17:17:23.414Z,1.25
2017-12-13T17:19:52.666Z,1.17
2017-12-13T17:22:21.095Z,1.30
2017-12-13T17:24:50.265Z,1.23
2017-12-13T17:27:18.942Z,1.40
2017-12-13T17:29:47.331Z,0.85
2017-12-13T17:32:15.777Z,1.02
2017-12-13T17:34:44.199Z,1.08
2017-12-13T17:37:12.642Z,2.20
2017-12-13T17:39:41.048Z,1.85
2017-12-13T17:42:09.438Z,1.50
2017-12-13T17:44:38.085Z,1.00
2017-12-13T17:47:06.632Z,1.10
2017-12-13T17:49:35.851Z,1.55
2017-12-13T17:52:04.252Z,1.10
2017-12-13T17:54:32.788Z,1.27
2017-12-13T17:57:02.089Z,1.73
2017-12-13T17:59:31.275Z,1.25
2017-12-13T18:02:01.303Z,1.10
2017-12-13T18:04:30.491Z,1.27
2017-12-13T18:06:58.894Z,1.35
2017-12-13T18:09:28.079Z,1.45
2017-12-13T18:11:57.535Z,1.37
2017-12-13T18:14:25.963Z,1.20
2017-12-13T18:16:55.172Z,1.35
2017-12-13T18:19:24.332Z,1.10
2017-12-13T18:21:52.762Z,1.37
2017-12-13T18:24:22.140Z,1.20
2017-12-13T18:26:50.565Z,1.42
2017-12-13T18:29:19.026Z,1.23
2017-12-13T18:31:48.397Z,1.30
2017-12-13T18:34:16.961Z,1.27
2017-12-13T18:36:45.400Z,1.75
2017-12-13T18:39:13.883Z,1.17
2017-12-13T18:41:42.274Z,1.27
2017-12-13T18:44:10.691Z,1.12
2017-12-13T18:46:39.106Z,1.12
2017-12-13T18:49:07.523Z,1.30
2017-12-13T18:51:35.927Z,1.33
2017-12-13T18:54:04.434Z,1.02
2017-12-13T18:56:33.437Z,1.60
2017-12-13T18:59:02.627Z,1.62
2017-12-13T19:01:31.822Z,1.90
2017-12-13T19:04:01.075Z,1.42
2017-12-13T19:06:29.590Z,1.42
2017-12-13T19:08:58.319Z,1.95
2017-12-13T19:11:26.752Z,1.87
2017-12-13T19:13:55.155Z,1.75
2017-12-13T19:16:24.351Z,1.83
2017-12-13T19:18:53.602Z,12.37
2017-12-13T19:21:22.123Z,11.90
2017-12-13T19:23:51.069Z,12.33
2017-12-13T19:26:19.498Z,12.63
2017-12-13T19:28:48.222Z,10.30
2017-12-13T19:31:16.388Z,9.90
2017-12-13T19:33:44.652Z,9.77
2017-12-13T19:36:13.543Z,9.93
2017-12-13T19:38:41.837Z,9.87
2017-12-13T19:41:10.198Z,9.27
2017-12-13T19:43:38.474Z,8.27
2017-12-13T19:46:06.731Z,9.23
2017-12-13T19:48:35.085Z,11.43
2017-12-13T19:51:04.469Z,8.47
2017-12-13T19:53:33.591Z,9.53
2017-12-13T19:56:02.700Z,8.33
2017-12-13T19:58:31.119Z,8.17
2017-12-13T20:00:59.605Z,5.60
2017-12-13T20:03:28.269Z,2.83
2017-12-13T20:05:57.833Z,2.47
2017-12-13T20:08:26.855Z,1.47
2017-12-13T20:10:55.122Z,2.93
2017-12-13T20:13:23.525Z,3.20
2017-12-13T20:15:52.867Z,3.00
2017-12-13T20:18:21.554Z,2.60
2017-12-13T20:20:50.801Z,2.77
2017-12-13T20:23:19.022Z,2.80
2017-12-13T20:25:47.732Z,3.23
2017-12-13T20:28:16.014Z,3.10
2017-12-13T20:30:45.194Z,3.30
2017-12-13T20:33:13.513Z,3.67
2017-12-13T20:35:42.143Z,3.00
2017-12-13T20:38:11.003Z,4.07
2017-12-13T20:40:39.383Z,2.87
2017-12-13T20:43:07.702Z,3.40
2017-12-13T20:45:36.959Z,3.97
2017-12-13T20:48:05.383Z,3.60
2017-12-13T20:50:34.486Z,3.93
2017-12-13T20:53:03.940Z,3.80
2017-12-13T20:55:32.283Z,4.60
2017-12-13T20:58:01.723Z,4.67
2017-12-13T21:00:29.815Z,5.90
2017-12-13T21:02:58.071Z,5.63
2017-12-13T21:05:26.333Z,6.07
2017-12-13T21:07:54.573Z,5.70
2017-12-13T21:10:23.645Z,5.97
2017-12-13T21:12:51.998Z,7.83
2017-12-13T21:15:20.815Z,5.93
2017-12-13T21:17:49.164Z,7.20
2017-12-13T21:20:17.924Z,7.37
2017-12-13T21:22:46.098Z,6.10
2017-12-13T21:25:15.022Z,7.67
2017-12-13T21:27:43.195Z,8.30
2017-12-13T21:30:11.573Z,5.73
2017-12-13T21:32:39.955Z,7.33
2017-12-13T21:35:09.174Z,2.70
2017-12-13T21:37:37.544Z,1.73
2017-12-13T21:40:06.632Z,1.50
2017-12-13T21:42:35.469Z,2.00
2017-12-13T21:45:04.099Z,1.83
2017-12-13T21:47:32.515Z,2.20
2017-12-13T21:50:01.042Z,5.00
2017-12-13T21:52:30.071Z,2.37
2017-12-13T21:54:58.268Z,3.47
2017-12-13T21:57:26.488Z,2.63
2017-12-13T21:59:55.402Z,2.40
2017-12-13T22:02:23.574Z,2.83
2017-12-13T22:04:51.756Z,3.83
2017-12-13T22:07:19.991Z,4.00
2017-12-13T22:09:48.898Z,2.90
2017-12-13T22:12:17.096Z,4.43
2017-12-13T22:14:45.441Z,3.50
2017-12-13T22:17:14.536Z,2.67
2017-12-13T22:19:43.523Z,3.17
2017-12-13T22:22:12.588Z,2.40
2017-12-13T22:24:40.741Z,2.43
2017-12-13T22:27:08.914Z,2.47
2017-12-13T22:29:37.078Z,2.63
2017-12-13T22:32:05.416Z,2.37
2017-12-13T22:34:34.510Z,2.67
2017-12-13T22:37:03.610Z,2.70
2017-12-13T22:39:32.538Z,1.80
2017-12-13T22:42:00.736Z,1.93
2017-12-13T22:44:28.935Z,2.10
2017-12-13T22:46:57.119Z,1.87
2017-12-13T22:49:25.508Z,2.50
2017-12-13T22:51:54.582Z,2.27
2017-12-13T22:54:22.754Z,3.30
2017-12-13T22:56:52.519Z,3.20
2017-12-13T22:59:21.498Z,2.70
2017-12-13T23:01:49.668Z,2.93
2017-12-13T23:04:18.621Z,2.07
2017-12-13T23:06:46.984Z,2.40
2017-12-13T23:09:15.323Z,2.87
2017-12-13T23:11:43.931Z,2.80
2017-12-13T23:14:12.102Z,1.93
2017-12-13T23:16:40.280Z,1.53
2017-12-13T23:19:08.456Z,2.30
2017-12-13T23:21:36.618Z,2.03
2017-12-13T23:24:04.791Z,2.27
2017-12-13T23:26:32.943Z,1.90
2017-12-13T23:29:01.879Z,2.33
2017-12-13T23:31:30.064Z,2.87
2017-12-13T23:33:58.223Z,2.27
2017-12-13T23:36:26.442Z,2.73
2017-12-13T23:38:54.596Z,2.67
2017-12-13T23:41:22.792Z,2.00
2017-12-13T23:43:50.938Z,1.90
2017-12-13T23:46:19.105Z,2.80
2017-12-13T23:48:47.261Z,1.60
2017-12-13T23:51:15.443Z,2.17
2017-12-13T23:53:44.497Z,2.67
2017-12-13T23:56:13.534Z,2.17
2017-12-13T23:58:41.720Z,1.57
